Terminal Aerodrome Forecast
Issued by NWS Cleveland, OH

Home | Current Version | Previous Version | Text Only | Print | Product List | Glossary Off
Versions: 1 2 3 4 5 6 7 8 9 10 11 12 13 14 15 16

290
FTUS41 KCLE 032335
TAFMFD
TAF
KMFD 032335Z 0400/0424 30006KT P6SM OVC060
     FM040400 22006KT P6SM SCT060
     FM040800 21006KT P6SM SCT040 OVC080
     FM041600 20010KT P6SM -SHRA OVC035
     FM042000 20010KT 5SM -SHRA OVC025=

USA.gov is the U.S. government's official web portal to all federal, state and local government web resources and services.